createdAt,value
2023-02-11T00:00:01.750Z,1
2023-02-11T00:01:00.918Z,1
2023-02-11T00:02:01.173Z,1
2023-02-11T00:03:01.160Z,1
2023-02-11T00:04:01.134Z,1
2023-02-11T00:05:01.146Z,1
2023-02-11T00:06:00.827Z,1
2023-02-11T00:07:00.393Z,1
2023-02-11T00:08:00.034Z,1
2023-02-11T00:08:59.715Z,1
2023-02-11T00:10:02.130Z,1
2023-02-11T00:11:01.388Z,1
2023-02-11T00:12:01.837Z,1
2023-02-11T00:13:01.088Z,1
2023-02-11T00:14:01.104Z,1
2023-02-11T00:15:01.100Z,1
2023-02-11T00:16:00.941Z,1
2023-02-11T00:17:01.322Z,1
2023-02-11T00:18:02.188Z,1
2023-02-11T00:19:02.969Z,1
2023-02-11T00:20:01.146Z,1
2023-02-11T00:21:00.611Z,1
2023-02-11T00:22:00.240Z,1
2023-02-11T00:23:00.718Z,1
2023-02-11T00:24:01.162Z,1
2023-02-11T00:25:01.205Z,1
2023-02-11T00:26:00.599Z,1
2023-02-11T00:27:00.186Z,1
2023-02-11T00:27:59.817Z,1
2023-02-11T00:29:02.529Z,1
2023-02-11T00:30:02.644Z,1
2023-02-11T00:31:01.374Z,1
2023-02-11T00:32:01.134Z,1
2023-02-11T00:33:01.112Z,1
2023-02-11T00:34:01.117Z,1
2023-02-11T00:35:01.552Z,1
2023-02-11T00:36:00.710Z,1
2023-02-11T00:37:00.300Z,1
2023-02-11T00:37:59.924Z,1
2023-02-11T00:38:59.615Z,1
2023-02-11T00:40:01.209Z,1
2023-02-11T00:41:00.846Z,1
2023-02-11T00:42:00.713Z,1
2023-02-11T00:43:00.427Z,1
2023-02-11T00:44:00.076Z,1
2023-02-11T00:44:59.738Z,1
2023-02-11T00:46:01.472Z,1
2023-02-11T00:47:01.061Z,1
2023-02-11T00:48:01.217Z,1
2023-02-11T00:49:01.228Z,1
2023-02-11T00:50:01.537Z,1
2023-02-11T00:51:02.696Z,1
2023-02-11T00:52:01.134Z,1
2023-02-11T00:53:01.139Z,1
2023-02-11T00:54:01.624Z,1
2023-02-11T00:55:01.820Z,1
2023-02-11T00:56:06.128Z,1
2023-02-11T00:57:01.833Z,1
2023-02-11T00:58:01.187Z,1
2023-02-11T00:59:01.295Z,1
2023-02-11T01:00:01.080Z,1
2023-02-11T01:01:07.586Z,1
2023-02-11T01:02:01.771Z,1
2023-02-11T01:03:01.789Z,1
2023-02-11T01:04:01.768Z,1
2023-02-11T01:05:01.458Z,1
2023-02-11T01:06:09.588Z,1
2023-02-11T01:07:01.112Z,1
2023-02-11T01:08:01.139Z,1
2023-02-11T01:09:01.525Z,1
2023-02-11T01:10:01.128Z,1
2023-02-11T01:11:13.322Z,1
2023-02-11T01:12:02.405Z,1
2023-02-11T01:13:01.085Z,1
2023-02-11T01:14:01.174Z,1
2023-02-11T01:15:00.795Z,1
2023-02-11T01:16:15.380Z,1
2023-02-11T01:17:01.391Z,1
2023-02-11T01:18:01.428Z,1
2023-02-11T01:19:01.239Z,1
2023-02-11T01:20:02.130Z,1
2023-02-11T01:21:00.909Z,1
2023-02-11T01:22:01.110Z,1
2023-02-11T01:23:01.138Z,1
2023-02-11T01:24:01.080Z,1
2023-02-11T01:25:01.208Z,1
2023-02-11T01:26:00.931Z,1
2023-02-11T01:27:01.163Z,1
2023-02-11T01:28:01.793Z,1
2023-02-11T01:29:01.163Z,1
2023-02-11T01:30:01.186Z,1
2023-02-11T01:31:00.931Z,1
2023-02-11T01:32:01.266Z,1
2023-02-11T01:33:01.090Z,1
2023-02-11T01:34:01.090Z,1
2023-02-11T01:35:01.080Z,1
2023-02-11T01:36:00.680Z,1
2023-02-11T01:37:00.275Z,1
2023-02-11T01:37:59.874Z,1
2023-02-11T01:39:01.804Z,1
2023-02-11T01:40:01.849Z,1
2023-02-11T01:41:01.555Z,1
2023-02-11T01:42:01.134Z,1.1
2023-02-11T01:43:01.534Z,1.1
2023-02-11T01:44:01.154Z,1.1
2023-02-11T01:45:01.065Z,1.1
2023-02-11T01:46:00.753Z,1.2
2023-02-11T01:47:00.462Z,1.2
2023-02-11T01:48:00.154Z,1.2
2023-02-11T01:48:59.948Z,1.3
2023-02-11T01:49:59.645Z,1.3
2023-02-11T01:51:01.280Z,1.3
2023-02-11T01:52:01.159Z,1.3
2023-02-11T01:53:01.153Z,1.5
2023-02-11T01:54:01.435Z,1.4
2023-02-11T01:55:01.949Z,1.4
2023-02-11T01:56:01.118Z,1.3
2023-02-11T01:57:01.137Z,1.4
2023-02-11T01:58:01.212Z,1.5
2023-02-11T01:59:01.147Z,1.5
2023-02-11T02:00:01.858Z,1.5
2023-02-11T02:01:00.839Z,1.5
2023-02-11T02:02:00.596Z,1.6
2023-02-11T02:03:00.258Z,1.5
2023-02-11T02:04:00.078Z,1.6
2023-02-11T02:04:59.751Z,1.6
2023-02-11T02:06:01.481Z,1.5
2023-02-11T02:07:01.099Z,1.5
2023-02-11T02:08:01.095Z,1.6
2023-02-11T02:09:01.775Z,1.6
2023-02-11T02:10:01.410Z,1.6
2023-02-11T02:11:01.095Z,1.6
2023-02-11T02:12:01.300Z,1.6
2023-02-11T02:13:01.335Z,1.6
2023-02-11T02:14:01.538Z,1.6
2023-02-11T02:15:01.167Z,1.7
2023-02-11T02:16:00.987Z,1.6
2023-02-11T02:17:01.152Z,1.6
2023-02-11T02:18:01.176Z,1.6
2023-02-11T02:19:02.424Z,1.6
2023-02-11T02:20:02.062Z,1.6
2023-02-11T02:21:01.053Z,1.6
2023-02-11T02:22:01.164Z,1.5
2023-02-11T02:23:01.198Z,1.6
2023-02-11T02:24:00.757Z,1.6
2023-02-11T02:25:00.393Z,1.5
2023-02-11T02:26:00.096Z,1.6
2023-02-11T02:26:59.963Z,1.7
2023-02-11T02:27:59.560Z,1.6
2023-02-11T02:29:01.252Z,1.5
2023-02-11T02:30:01.126Z,1.5
2023-02-11T02:31:00.986Z,1.6
2023-02-11T02:32:01.154Z,1.6
2023-02-11T02:33:07.912Z,1.5
2023-02-11T02:34:01.158Z,1.6
2023-02-11T02:35:01.062Z,1.6
2023-02-11T02:36:00.749Z,1.6
2023-02-11T02:37:00.606Z,1.5
2023-02-11T02:38:00.260Z,1.6
2023-02-11T02:39:00.107Z,1.6
2023-02-11T02:39:59.739Z,1.5
2023-02-11T02:41:01.383Z,1.6
2023-02-11T02:42:03.858Z,1.5
2023-02-11T02:43:02.113Z,1.5
2023-02-11T02:44:01.779Z,1.6
2023-02-11T02:45:01.047Z,1.6
2023-02-11T02:46:00.940Z,1.6
2023-02-11T02:47:07.475Z,1.6
2023-02-11T02:48:01.156Z,1.6
2023-02-11T02:49:01.408Z,1.7
2023-02-11T02:50:02.477Z,1.6
2023-02-11T02:51:01.050Z,1.6
2023-02-11T02:52:11.603Z,1.5
2023-02-11T02:53:01.087Z,1.5
2023-02-11T02:54:01.087Z,1.5
2023-02-11T02:55:01.084Z,1.5
2023-02-11T02:56:00.759Z,1.5
2023-02-11T02:57:14.268Z,1.5
2023-02-11T02:58:03.790Z,1.5
2023-02-11T02:59:01.379Z,1.5
2023-02-11T03:00:01.113Z,1.4
2023-02-11T03:01:00.864Z,1.5
2023-02-11T03:02:01.113Z,1.5
2023-02-11T03:03:01.167Z,1.5
2023-02-11T03:04:01.604Z,1.5
2023-02-11T03:05:01.262Z,1.5
2023-02-11T03:06:01.716Z,1.5
2023-02-11T03:07:01.284Z,1.5
2023-02-11T03:08:01.163Z,1.5
2023-02-11T03:09:03.873Z,1.4
2023-02-11T03:10:01.059Z,1.4
2023-02-11T03:11:00.861Z,1.4
2023-02-11T03:12:01.094Z,1.5
2023-02-11T03:13:01.809Z,1.4
2023-02-11T03:14:01.062Z,1.4
2023-02-11T03:15:01.538Z,1.4
2023-02-11T03:16:00.990Z,1.5
2023-02-11T03:17:01.546Z,1.4
2023-02-11T03:18:01.131Z,1.4
2023-02-11T03:19:01.120Z,1.5
2023-02-11T03:20:01.124Z,1.4
2023-02-11T03:21:00.831Z,1.4
2023-02-11T03:22:00.538Z,1.4
2023-02-11T03:23:00.338Z,1.4
2023-02-11T03:24:00.018Z,1.4
2023-02-11T03:24:59.708Z,1.3
2023-02-11T03:26:01.369Z,1.4
2023-02-11T03:27:03.973Z,1.4
2023-02-11T03:28:01.161Z,1.3
2023-02-11T03:29:00.684Z,1.4
2023-02-11T03:30:00.385Z,1.3
2023-02-11T03:31:00.082Z,1.3
2023-02-11T03:31:59.868Z,1.4
2023-02-11T03:32:59.567Z,1.3
2023-02-11T03:34:01.145Z,1.4
2023-02-11T03:35:01.126Z,1.4
2023-02-11T03:36:00.823Z,1.4
2023-02-11T03:37:00.660Z,1.4
2023-02-11T03:38:00.262Z,1.5
2023-02-11T03:38:59.863Z,1.5
2023-02-11T03:39:59.518Z,1.4
2023-02-11T03:41:01.136Z,1.5
2023-02-11T03:42:01.166Z,1.6
2023-02-11T03:43:01.088Z,1.5
2023-02-11T03:44:00.787Z,1.5
2023-02-11T03:45:00.480Z,1.4
2023-02-11T03:46:00.421Z,1.5
2023-02-11T03:47:00.167Z,1.6
2023-02-11T03:47:59.880Z,1.6
2023-02-11T03:48:59.559Z,1.6
2023-02-11T03:50:01.170Z,1.7
2023-02-11T03:51:00.818Z,1.7
2023-02-11T03:52:00.519Z,1.7
2023-02-11T03:53:00.131Z,1.7
2023-02-11T03:53:59.804Z,1.8
2023-02-11T03:55:01.445Z,1.7
2023-02-11T03:56:01.251Z,1.8
2023-02-11T03:57:01.180Z,1.9
2023-02-11T03:58:01.072Z,1.9
2023-02-11T03:59:01.376Z,1.9
2023-02-11T04:00:01.821Z,2
2023-02-11T04:01:01.233Z,2
2023-02-11T04:02:02.006Z,1.9
2023-02-11T04:03:01.237Z,1.9
2023-02-11T04:04:00.639Z,2.1
2023-02-11T04:05:00.316Z,2.2
2023-02-11T04:06:00.110Z,2.1
2023-02-11T04:07:00.041Z,2.2
2023-02-11T04:08:01.198Z,2.3
2023-02-11T04:09:00.723Z,2.4
2023-02-11T04:10:01.141Z,2.5
2023-02-11T04:11:00.835Z,2.5
2023-02-11T04:12:00.444Z,2.6
2023-02-11T04:13:03.512Z,2.5
2023-02-11T04:14:00.836Z,2.6
2023-02-11T04:15:00.452Z,2.6
2023-02-11T04:16:00.287Z,2.6
2023-02-11T04:16:59.891Z,2.7
2023-02-11T04:18:04.902Z,2.7
2023-02-11T04:19:01.476Z,2.8
2023-02-11T04:20:00.578Z,2.8
2023-02-11T04:21:00.266Z,2.8
2023-02-11T04:21:59.871Z,2.8
2023-02-11T04:23:07.578Z,2.8
2023-02-11T04:24:01.141Z,2.7
2023-02-11T04:25:01.131Z,2.9
2023-02-11T04:26:00.723Z,2.8
2023-02-11T04:27:00.310Z,2.8
2023-02-11T04:28:10.669Z,2.8
2023-02-11T04:29:01.161Z,2.9
2023-02-11T04:30:01.210Z,3
2023-02-11T04:31:00.906Z,3
2023-02-11T04:32:01.133Z,2.9
2023-02-11T04:33:14.260Z,3
2023-02-11T04:34:01.772Z,3
2023-02-11T04:35:01.366Z,3
2023-02-11T04:36:00.993Z,3
2023-02-11T04:37:01.495Z,3
2023-02-11T04:38:01.224Z,3
2023-02-11T04:39:01.132Z,3.1
2023-02-11T04:40:01.124Z,3.2
2023-02-11T04:41:00.801Z,3.3
2023-02-11T04:42:00.386Z,3.4
2023-02-11T04:43:00.004Z,3.5
2023-02-11T04:43:59.648Z,3.6
2023-02-11T04:45:01.544Z,3.7
2023-02-11T04:46:01.266Z,3.9
2023-02-11T04:47:01.195Z,4
2023-02-11T04:48:02.350Z,4
2023-02-11T04:49:01.080Z,4.1
2023-02-11T04:50:01.091Z,4.1
2023-02-11T04:51:00.756Z,4.1
2023-02-11T04:52:00.404Z,4.1
2023-02-11T04:53:00.060Z,4.3
2023-02-11T04:53:59.660Z,4.4
2023-02-11T04:55:01.318Z,4.5
2023-02-11T04:56:01.000Z,4.5
2023-02-11T04:57:01.174Z,4.5
2023-02-11T04:58:01.591Z,4.5
2023-02-11T04:59:00.863Z,4.6
2023-02-11T05:00:01.159Z,4.8
2023-02-11T05:01:00.668Z,4.9
2023-02-11T05:02:00.362Z,4.9
2023-02-11T05:03:00.149Z,5.1
2023-02-11T05:03:59.765Z,5.2
2023-02-11T05:05:01.756Z,5.3
2023-02-11T05:06:01.167Z,5.3
2023-02-11T05:07:01.813Z,5.3
2023-02-11T05:08:01.072Z,5.3
2023-02-11T05:09:01.067Z,5.3
2023-02-11T05:10:01.589Z,5.5
2023-02-11T05:11:00.711Z,5.6
2023-02-11T05:12:00.388Z,5.6
2023-02-11T05:12:59.987Z,5.7
2023-02-11T05:13:59.584Z,5.8
2023-02-11T05:15:01.168Z,6
2023-02-11T05:16:00.826Z,6
2023-02-11T05:17:00.663Z,6.3
2023-02-11T05:18:00.350Z,6.6
2023-02-11T05:19:00.227Z,6.6
2023-02-11T05:19:59.832Z,6.8
2023-02-11T05:21:01.690Z,6.9
2023-02-11T05:22:03.667Z,6.9
2023-02-11T05:23:01.781Z,6.9
2023-02-11T05:24:01.772Z,7
2023-02-11T05:25:01.837Z,7.2
2023-02-11T05:26:01.088Z,7.6
2023-02-11T05:27:01.112Z,7.8
2023-02-11T05:28:01.166Z,7.8
2023-02-11T05:29:01.548Z,8.2
2023-02-11T05:30:01.142Z,8.4
2023-02-11T05:31:01.935Z,8.4
2023-02-11T05:31:59.490Z,8.8
2023-02-11T05:33:03.153Z,9.1
2023-02-11T05:34:01.161Z,9.2
2023-02-11T05:35:02.477Z,9.7
2023-02-11T05:36:00.844Z,9.6
2023-02-11T05:37:00.632Z,9.8
2023-02-11T05:38:00.555Z,10.2
2023-02-11T05:39:00.160Z,10.4
2023-02-11T05:39:59.738Z,10.4
2023-02-11T05:41:01.388Z,10.6
2023-02-11T05:42:01.108Z,10.9
2023-02-11T05:43:01.095Z,11.1
2023-02-11T05:44:03.802Z,11.3
2023-02-11T05:45:01.287Z,11.4
2023-02-11T05:46:00.700Z,11.7
2023-02-11T05:47:00.314Z,11.7
2023-02-11T05:47:59.993Z,11.7
2023-02-11T05:48:59.583Z,11.8
2023-02-11T05:50:01.165Z,12
2023-02-11T05:51:00.830Z,12.1
2023-02-11T05:52:00.473Z,12.1
2023-02-11T05:53:00.148Z,12.1
2023-02-11T05:54:00.844Z,12.2
2023-02-11T05:55:01.433Z,12.4
2023-02-11T05:56:01.184Z,12.5
2023-02-11T05:57:01.098Z,12.4
2023-02-11T05:58:01.073Z,12.4
2023-02-11T05:59:03.442Z,12.4
2023-02-11T06:00:01.123Z,12.5
2023-02-11T06:01:00.890Z,12.4
2023-02-11T06:02:01.208Z,12.4
2023-02-11T06:03:01.736Z,12.4
2023-02-11T06:04:06.571Z,12.4
2023-02-11T06:05:02.872Z,12.3
2023-02-11T06:06:01.150Z,12.4
2023-02-11T06:07:01.149Z,12.5
2023-02-11T06:08:01.161Z,12.5
2023-02-11T06:09:09.240Z,12.5
2023-02-11T06:10:01.066Z,12.4
2023-02-11T06:11:00.808Z,12.5
2023-02-11T06:12:00.720Z,12.4
2023-02-11T06:13:00.725Z,12.4
2023-02-11T06:14:11.461Z,12.4
2023-02-11T06:15:01.399Z,12.3
2023-02-11T06:16:01.213Z,12.3
2023-02-11T06:17:00.592Z,12.2
2023-02-11T06:18:00.204Z,12.2
2023-02-11T06:19:14.157Z,12.2
2023-02-11T06:20:01.875Z,12.1
2023-02-11T06:21:00.833Z,12.2
2023-02-11T06:22:00.423Z,12.1
2023-02-11T06:23:00.011Z,12.1
2023-02-11T06:23:59.617Z,12
2023-02-11T06:25:02.286Z,12
2023-02-11T06:26:01.169Z,11.9
2023-02-11T06:27:01.100Z,11.9
2023-02-11T06:28:01.970Z,11.8
2023-02-11T06:29:01.151Z,11.8
2023-02-11T06:30:01.241Z,11.7
2023-02-11T06:31:01.102Z,11.7
2023-02-11T06:32:01.346Z,11.6
2023-02-11T06:33:00.895Z,11.6
2023-02-11T06:34:01.156Z,11.5
2023-02-11T06:35:01.904Z,11.5
2023-02-11T06:36:00.928Z,11.5
2023-02-11T06:37:01.139Z,11.4
2023-02-11T06:38:01.049Z,11.3
2023-02-11T06:39:01.073Z,11.3
2023-02-11T06:40:01.161Z,11.3
2023-02-11T06:41:00.845Z,11.3
2023-02-11T06:42:01.296Z,11.3
2023-02-11T06:43:01.710Z,11.3
2023-02-11T06:44:02.776Z,11.1
2023-02-11T06:45:01.408Z,11.1
2023-02-11T06:46:01.090Z,11.1
2023-02-11T06:47:01.103Z,11.2
2023-02-11T06:48:01.117Z,11.2
2023-02-11T06:49:01.334Z,11
2023-02-11T06:50:00.909Z,11.2
2023-02-11T06:51:00.608Z,11.2
2023-02-11T06:52:00.288Z,11.2
2023-02-11T06:53:00.003Z,11.3
2023-02-11T06:53:59.785Z,11.3
2023-02-11T06:55:03.210Z,11.3
2023-02-11T06:56:01.511Z,11.4
2023-02-11T06:57:01.159Z,11.4
2023-02-11T06:58:01.166Z,11.6
2023-02-11T06:59:01.273Z,11.6
2023-02-11T07:00:01.092Z,11.5
2023-02-11T07:01:00.894Z,11.4
2023-02-11T07:02:01.211Z,11.4
2023-02-11T07:03:01.184Z,11.5
2023-02-11T07:04:01.108Z,11.6
2023-02-11T07:05:01.109Z,11.6
2023-02-11T07:06:00.780Z,11.7
2023-02-11T07:07:00.336Z,11.7
2023-02-11T07:07:59.896Z,11.7
2023-02-11T07:08:59.765Z,11.8
2023-02-11T07:10:01.843Z,11.9
2023-02-11T07:11:01.561Z,11.9
2023-02-11T07:12:01.493Z,11.9
2023-02-11T07:13:01.436Z,12
2023-02-11T07:14:03.082Z,12.2
2023-02-11T07:15:02.278Z,12.2
2023-02-11T07:16:00.773Z,12.3
2023-02-11T07:17:00.446Z,12.3
2023-02-11T07:18:00.070Z,12.3
2023-02-11T07:18:59.659Z,12.2
2023-02-11T07:20:01.837Z,12.3
2023-02-11T07:21:01.546Z,12.4
2023-02-11T07:22:01.148Z,12.4
2023-02-11T07:23:01.146Z,12.5
2023-02-11T07:24:01.162Z,12.6
2023-02-11T07:25:01.844Z,12.7
2023-02-11T07:26:00.825Z,12.8
2023-02-11T07:27:01.174Z,13
2023-02-11T07:28:01.669Z,13.1
2023-02-11T07:29:01.176Z,13.2
2023-02-11T07:30:01.181Z,13.4
2023-02-11T07:31:01.048Z,13.5
2023-02-11T07:32:01.692Z,13.5
2023-02-11T07:33:00.879Z,13.5
2023-02-11T07:34:01.084Z,13.7
2023-02-11T07:35:00.583Z,14.1
2023-02-11T07:36:01.005Z,14.3
2023-02-11T07:37:01.136Z,14.8
2023-02-11T07:38:01.113Z,15.2
2023-02-11T07:39:01.112Z,15.5
2023-02-11T07:40:01.631Z,15.6
2023-02-11T07:41:01.118Z,15.8
2023-02-11T07:42:01.179Z,15.8
2023-02-11T07:43:01.149Z,15.8
2023-02-11T07:44:01.143Z,15.9
2023-02-11T07:45:04.207Z,16.1
2023-02-11T07:46:00.528Z,16.4
2023-02-11T07:47:00.629Z,16.5
2023-02-11T07:48:00.580Z,16.6
2023-02-11T07:49:00.180Z,16.7
2023-02-11T07:50:06.729Z,16.8
2023-02-11T07:51:01.490Z,17
2023-02-11T07:52:02.015Z,17.1
2023-02-11T07:53:01.190Z,17.1
2023-02-11T07:54:01.793Z,17.1
2023-02-11T07:55:09.997Z,17.1
2023-02-11T07:56:01.401Z,17.2
2023-02-11T07:57:00.523Z,17.1
2023-02-11T07:58:00.109Z,17.1
2023-02-11T07:58:59.707Z,17
2023-02-11T08:00:10.062Z,17
2023-02-11T08:01:01.521Z,17
2023-02-11T08:02:01.579Z,16.9
2023-02-11T08:03:01.599Z,16.7
2023-02-11T08:04:01.585Z,16.6
2023-02-11T08:05:12.714Z,16.5
2023-02-11T08:06:00.857Z,16.2
2023-02-11T08:07:00.499Z,16
2023-02-11T08:08:00.072Z,15.9
2023-02-11T08:08:59.769Z,15.8
2023-02-11T08:10:15.958Z,15.7
2023-02-11T08:11:01.540Z,15.5
2023-02-11T08:12:01.140Z,15.3
2023-02-11T08:13:00.814Z,15.2
2023-02-11T08:14:01.137Z,15.1
2023-02-11T08:15:01.181Z,14.9
2023-02-11T08:16:00.967Z,14.9
2023-02-11T08:17:01.547Z,14.7
2023-02-11T08:18:00.655Z,14.6
2023-02-11T08:19:00.324Z,14.6
2023-02-11T08:20:00.041Z,14.5
2023-02-11T08:21:01.063Z,14.4
2023-02-11T08:22:01.076Z,14.4
2023-02-11T08:23:01.133Z,14.2
2023-02-11T08:24:01.092Z,14.1
2023-02-11T08:25:01.749Z,14.1
2023-02-11T08:26:00.602Z,14
2023-02-11T08:27:00.383Z,13.9
2023-02-11T08:28:00.075Z,13.8
2023-02-11T08:29:00.126Z,13.7
2023-02-11T08:29:59.890Z,13.6
2023-02-11T08:30:59.709Z,13.5
2023-02-11T08:32:01.136Z,13.4
2023-02-11T08:33:01.146Z,13.4
2023-02-11T08:34:01.205Z,13.3
2023-02-11T08:35:01.181Z,13.2
2023-02-11T08:36:01.081Z,13.2
2023-02-11T08:37:01.062Z,13.1
2023-02-11T08:38:01.197Z,13.1
2023-02-11T08:39:17.569Z,12.9
2023-02-11T08:40:01.474Z,12.9
2023-02-11T08:41:01.113Z,12.8
2023-02-11T08:42:01.111Z,12.9
2023-02-11T08:43:01.103Z,12.8
2023-02-11T08:44:01.101Z,12.8
2023-02-11T08:45:01.809Z,12.7
2023-02-11T08:46:02.680Z,12.7
2023-02-11T08:47:01.894Z,12.6
2023-02-11T08:48:01.676Z,12.5
2023-02-11T08:49:01.338Z,12.6
2023-02-11T08:50:02.100Z,12.6
2023-02-11T08:51:02.132Z,12.5
2023-02-11T08:52:02.585Z,12.3
2023-02-11T08:53:01.195Z,12.2
2023-02-11T08:54:01.096Z,12.1
2023-02-11T08:55:01.251Z,12.2
2023-02-11T08:56:01.532Z,12.1
2023-02-11T08:57:01.123Z,12
2023-02-11T08:58:01.104Z,12
2023-02-11T08:59:01.055Z,11.9
2023-02-11T09:00:01.103Z,12
2023-02-11T09:01:01.275Z,12
2023-02-11T09:02:01.252Z,12
2023-02-11T09:03:01.125Z,12
2023-02-11T09:04:01.238Z,11.9
2023-02-11T09:05:01.141Z,11.8
2023-02-11T09:06:01.333Z,11.8
2023-02-11T09:07:01.139Z,11.8
2023-02-11T09:08:01.144Z,11.9
2023-02-11T09:09:01.967Z,11.8
2023-02-11T09:10:02.085Z,11.9
2023-02-11T09:11:01.143Z,11.9
2023-02-11T09:12:01.155Z,11.9
2023-02-11T09:13:01.210Z,11.8
2023-02-11T09:14:01.900Z,11.8
2023-02-11T09:15:01.953Z,11.8
2023-02-11T09:16:01.530Z,11.7
2023-02-11T09:17:01.297Z,11.8
2023-02-11T09:18:01.124Z,11.7
2023-02-11T09:19:02.044Z,11.7
2023-02-11T09:20:01.578Z,11.8
2023-02-11T09:21:01.161Z,11.7
2023-02-11T09:22:01.164Z,11.4
2023-02-11T09:23:01.155Z,11.4
2023-02-11T09:24:01.068Z,11.4
2023-02-11T09:25:01.460Z,11.4
2023-02-11T09:26:02.295Z,11.4
2023-02-11T09:27:00.785Z,11.4
2023-02-11T09:28:00.537Z,11.4
2023-02-11T09:29:00.288Z,11.4
2023-02-11T09:29:59.952Z,11.4
2023-02-11T09:30:59.888Z,11.5
2023-02-11T09:31:59.891Z,11.3
2023-02-11T09:32:59.648Z,11
2023-02-11T09:34:01.489Z,11
2023-02-11T09:35:01.235Z,10.8
2023-02-11T09:36:02.973Z,10.6
2023-02-11T09:37:01.130Z,10.4
2023-02-11T09:38:01.151Z,10.3
2023-02-11T09:39:01.139Z,10.1
2023-02-11T09:40:01.219Z,9.9
2023-02-11T09:41:04.926Z,9.9
2023-02-11T09:42:01.234Z,9.9
2023-02-11T09:43:04.034Z,9.8
2023-02-11T09:44:01.134Z,9.8
2023-02-11T09:45:01.494Z,9.7
2023-02-11T09:46:07.152Z,9.7
2023-02-11T09:47:00.706Z,9.6
2023-02-11T09:48:00.268Z,9.5
2023-02-11T09:48:59.864Z,9.4
2023-02-11T09:50:01.925Z,9.4
2023-02-11T09:51:09.785Z,9.4
2023-02-11T09:52:01.132Z,9.3
2023-02-11T09:53:01.306Z,9.4
2023-02-11T09:54:05.178Z,9.3
2023-02-11T09:55:01.277Z,9.4
2023-02-11T09:56:07.888Z,9.5
2023-02-11T09:57:01.161Z,9.5
2023-02-11T09:58:01.177Z,9.5
2023-02-11T09:59:01.475Z,9.6
2023-02-11T10:00:01.921Z,9.6
2023-02-11T10:01:15.602Z,9.7
2023-02-11T10:02:01.191Z,9.8
2023-02-11T10:03:01.477Z,9.7
2023-02-11T10:04:01.172Z,9.7
2023-02-11T10:05:01.146Z,9.7
2023-02-11T10:06:01.118Z,9.8
2023-02-11T10:07:01.152Z,9.8
2023-02-11T10:08:01.127Z,9.9
2023-02-11T10:09:01.136Z,9.9
2023-02-11T10:10:01.131Z,9.9
2023-02-11T10:11:01.153Z,9.9
2023-02-11T10:12:01.546Z,10
2023-02-11T10:13:01.172Z,10
2023-02-11T10:14:01.179Z,10.1
2023-02-11T10:15:01.101Z,10.1
2023-02-11T10:16:01.295Z,10.2
2023-02-11T10:17:01.081Z,10.3
2023-02-11T10:18:01.154Z,10.3
2023-02-11T10:19:01.087Z,10.3
2023-02-11T10:20:01.100Z,10.5
2023-02-11T10:21:01.807Z,10.4
2023-02-11T10:22:01.450Z,10.6
2023-02-11T10:23:02.137Z,10.5
2023-02-11T10:24:02.112Z,10.4
2023-02-11T10:25:01.121Z,10.5
2023-02-11T10:26:01.180Z,10.4
2023-02-11T10:27:01.167Z,10.6
2023-02-11T10:28:01.231Z,10.7
2023-02-11T10:29:01.153Z,10.7
2023-02-11T10:30:01.173Z,10.7
2023-02-11T10:31:01.296Z,10.9
2023-02-11T10:32:04.177Z,10.9
2023-02-11T10:33:00.673Z,10.9
2023-02-11T10:34:00.402Z,10.9
2023-02-11T10:35:00.049Z,10.9
2023-02-11T10:35:59.868Z,11
2023-02-11T10:36:59.857Z,11.1
2023-02-11T10:37:59.563Z,11.2
2023-02-11T10:39:01.268Z,11.2
2023-02-11T10:40:02.189Z,11.3
2023-02-11T10:41:02.063Z,11.4
2023-02-11T10:42:01.134Z,11.4
2023-02-11T10:43:01.199Z,11.5
2023-02-11T10:44:01.163Z,11.7
2023-02-11T10:45:01.193Z,11.7
2023-02-11T10:46:01.338Z,11.7
2023-02-11T10:47:01.177Z,11.7
2023-02-11T10:48:01.160Z,11.7
2023-02-11T10:49:01.380Z,11.7
2023-02-11T10:50:02.631Z,11.8
2023-02-11T10:51:02.097Z,11.7
2023-02-11T10:52:02.009Z,11.7
2023-02-11T10:53:01.122Z,11.8
2023-02-11T10:54:01.098Z,11.8
2023-02-11T10:55:01.128Z,11.8
2023-02-11T10:56:01.123Z,11.8
2023-02-11T10:57:01.180Z,11.8
2023-02-11T10:58:01.143Z,11.8
2023-02-11T10:59:01.176Z,12
2023-02-11T11:00:01.216Z,12
2023-02-11T11:01:03.714Z,12
2023-02-11T11:02:01.293Z,12.1
2023-02-11T11:03:02.061Z,12.4
2023-02-11T11:04:01.540Z,12.4
2023-02-11T11:05:01.205Z,12.3
2023-02-11T11:06:01.139Z,13.1
2023-02-11T11:07:01.094Z,12.5
2023-02-11T11:08:01.184Z,12.3
2023-02-11T11:09:01.519Z,12.4
2023-02-11T11:10:01.132Z,12.4
2023-02-11T11:11:01.131Z,12.3
2023-02-11T11:12:01.521Z,12.5
2023-02-11T11:13:00.937Z,12.7
2023-02-11T11:14:04.195Z,12.7
2023-02-11T11:15:02.234Z,12.8
2023-02-11T11:16:01.583Z,12.8
2023-02-11T11:17:01.152Z,13
2023-02-11T11:18:15.456Z,13.2
2023-02-11T11:19:01.195Z,13.8
2023-02-11T11:20:01.225Z,14
2023-02-11T11:21:01.078Z,18.5
2023-02-11T11:22:01.926Z,15.5
2023-02-11T11:23:01.119Z,14
2023-02-11T11:24:01.096Z,14
2023-02-11T11:25:01.087Z,14.5
2023-02-11T11:26:01.135Z,13.9
2023-02-11T11:27:05.444Z,13.8
2023-02-11T11:28:01.863Z,14.4
2023-02-11T11:29:02.314Z,14.2
2023-02-11T11:30:00.536Z,14.3
2023-02-11T11:31:00.533Z,14.5
2023-02-11T11:32:05.315Z,14.3
2023-02-11T11:33:01.154Z,14.5
2023-02-11T11:34:01.168Z,14
2023-02-11T11:35:01.178Z,13.9
2023-02-11T11:36:01.575Z,14.1
2023-02-11T11:37:09.240Z,14.1
2023-02-11T11:38:02.283Z,15
2023-02-11T11:39:01.894Z,14.9
2023-02-11T11:40:01.064Z,14.8
2023-02-11T11:41:00.672Z,14.7
2023-02-11T11:42:10.633Z,14.8
2023-02-11T11:43:01.312Z,14.5
2023-02-11T11:44:01.131Z,14.5
2023-02-11T11:45:01.115Z,14.5
2023-02-11T11:46:01.156Z,14.5
2023-02-11T11:47:13.711Z,14.4
2023-02-11T11:48:01.125Z,14.5
2023-02-11T11:49:01.131Z,14.5
2023-02-11T11:50:01.140Z,14.3
2023-02-11T11:51:01.363Z,14.3
2023-02-11T11:52:16.209Z,14.5
2023-02-11T11:53:02.203Z,14.6
2023-02-11T11:54:01.319Z,14.5
2023-02-11T11:55:01.075Z,14.4
2023-02-11T11:56:01.089Z,14.4
2023-02-11T11:57:01.117Z,14.5
2023-02-11T11:58:01.119Z,14.5
2023-02-11T11:59:01.301Z,14.6
2023-02-11T12:00:01.217Z,14.6
2023-02-11T12:01:01.413Z,14.8
2023-02-11T12:02:01.491Z,14.8
2023-02-11T12:03:01.188Z,14.9
2023-02-11T12:04:01.133Z,14.8
2023-02-11T12:05:01.124Z,14.7
2023-02-11T12:06:01.153Z,14.7
2023-02-11T12:07:01.156Z,14.6
2023-02-11T12:08:01.141Z,14.6
2023-02-11T12:09:01.232Z,14.7
2023-02-11T12:10:01.409Z,14.7
2023-02-11T12:11:01.616Z,14.6
2023-02-11T12:12:02.125Z,14.8
2023-02-11T12:13:03.851Z,14.8
2023-02-11T12:14:01.250Z,14.9
2023-02-11T12:15:01.102Z,14.9
2023-02-11T12:16:01.174Z,14.9
2023-02-11T12:17:01.102Z,14.8
2023-02-11T12:18:01.114Z,15
2023-02-11T12:19:01.259Z,15.1
2023-02-11T12:20:01.235Z,15.2
2023-02-11T12:21:01.135Z,15.3
2023-02-11T12:22:03.868Z,15.3
2023-02-11T12:23:01.045Z,15.5
2023-02-11T12:24:00.527Z,15.5
2023-02-11T12:25:00.181Z,15.6
2023-02-11T12:25:59.780Z,15.8
2023-02-11T12:27:04.861Z,17.1
2023-02-11T12:28:01.570Z,16.2
2023-02-11T12:29:01.292Z,16
2023-02-11T12:30:02.062Z,16.1
2023-02-11T12:31:02.286Z,16.1
2023-02-11T12:32:01.162Z,16.1
2023-02-11T12:33:01.317Z,16.2
2023-02-11T12:34:01.114Z,16.3
2023-02-11T12:35:01.052Z,16.4
2023-02-11T12:36:01.126Z,16.6
2023-02-11T12:37:02.810Z,16.8
2023-02-11T12:38:01.450Z,16.9
2023-02-11T12:39:01.531Z,17
2023-02-11T12:40:02.868Z,17.3
2023-02-11T12:41:01.165Z,17.4
2023-02-11T12:42:01.075Z,17.5
2023-02-11T12:43:02.621Z,17.7
2023-02-11T12:44:01.093Z,17.8
2023-02-11T12:45:01.047Z,17.8
2023-02-11T12:46:03.836Z,18
2023-02-11T12:47:01.789Z,18.2
2023-02-11T12:48:01.152Z,18.3
2023-02-11T12:49:01.045Z,18.5
2023-02-11T12:50:01.112Z,18.6
2023-02-11T12:51:01.120Z,18.7
2023-02-11T12:52:01.124Z,18.8
2023-02-11T12:53:01.418Z,18.8
2023-02-11T12:54:01.419Z,18.9
2023-02-11T12:55:02.562Z,19
2023-02-11T12:56:02.854Z,19.1
2023-02-11T12:57:01.140Z,19.2
2023-02-11T12:58:01.206Z,19.4
2023-02-11T12:59:01.073Z,19.4
2023-02-11T13:00:01.113Z,19.5
2023-02-11T13:01:01.378Z,19.7
2023-02-11T13:02:02.267Z,19.9
2023-02-11T13:03:01.118Z,20
2023-02-11T13:04:01.104Z,20.4
2023-02-11T13:05:01.104Z,20.7
2023-02-11T13:06:01.062Z,20.9
2023-02-11T13:07:01.133Z,21.1
2023-02-11T13:08:01.098Z,21.3
2023-02-11T13:09:01.078Z,21.8
2023-02-11T13:10:01.125Z,21.8
2023-02-11T13:11:01.141Z,22.2
2023-02-11T13:12:01.150Z,22.3
2023-02-11T13:13:01.127Z,22.7
2023-02-11T13:14:01.138Z,23.1
2023-02-11T13:15:01.174Z,23.3
2023-02-11T13:16:00.824Z,23.7
2023-02-11T13:17:00.596Z,24
2023-02-11T13:18:03.145Z,24.4
2023-02-11T13:19:01.379Z,24.7
2023-02-11T13:20:01.120Z,25.1
2023-02-11T13:21:01.188Z,25.7
2023-02-11T13:22:01.225Z,26.1
2023-02-11T13:23:06.220Z,26.4
2023-02-11T13:24:02.348Z,26.6
2023-02-11T13:25:01.816Z,27.1
2023-02-11T13:26:01.156Z,27.3
2023-02-11T13:27:01.159Z,27.7
2023-02-11T13:28:09.019Z,28.2
2023-02-11T13:29:01.152Z,28.6
2023-02-11T13:30:04.132Z,29.1
2023-02-11T13:31:01.436Z,29.3
2023-02-11T13:32:01.374Z,29.5
2023-02-11T13:33:11.856Z,30
2023-02-11T13:34:01.185Z,30.3
2023-02-11T13:35:02.234Z,30.6
2023-02-11T13:36:04.843Z,30.9
2023-02-11T13:37:01.809Z,31.3
2023-02-11T13:38:16.484Z,31.8
2023-02-11T13:39:02.195Z,32.3
2023-02-11T13:40:02.327Z,32.8
2023-02-11T13:41:03.947Z,33.1